TimeCDT,TemperatureF,Dew PointF,Humidity,Sea Level PressureIn,VisibilityMPH,Wind Direction,Wind SpeedMPH,Gust SpeedMPH,PrecipitationIn,Events,Conditions,WindDirDegrees,DateUTC
12:15 AM,83.5,70.2,64,29.87,10.0,South,19.6,26.5,N/A,,Clear,180,2013-06-22 05:15:00
12:35 AM,83.3,70.7,66,29.87,10.0,South,18.4,25.3,N/A,,Clear,190,2013-06-22 05:35:00
12:55 AM,82.9,71.4,68,29.87,10.0,South,19.6,26.5,N/A,,Clear,190,2013-06-22 05:55:00
1:15 AM,82.6,71.8,70,29.86,10.0,South,17.3,27.6,N/A,,Clear,190,2013-06-22 06:15:00
1:35 AM,82.4,71.8,70,29.86,10.0,South,18.4,26.5,N/A,,Clear,190,2013-06-22 06:35:00
1:55 AM,81.9,71.8,71,29.87,10.0,South,15.0,23.0,N/A,,Clear,190,2013-06-22 06:55:00
2:15 AM,81.7,71.6,71,29.87,10.0,South,16.1,23.0,N/A,,Clear,190,2013-06-22 07:15:00
2:35 AM,81.1,71.2,72,29.88,10.0,South,11.5,19.6,N/A,,Clear,190,2013-06-22 07:35:00
2:55 AM,80.8,71.1,72,29.89,10.0,South,9.2,-,N/A,,Clear,190,2013-06-22 07:55:00
3:15 AM,80.6,70.9,72,29.91,10.0,SW,5.8,-,N/A,,Clear,230,2013-06-22 08:15:00
3:35 AM,79.7,71.6,76,29.94,10.0,NW,8.1,-,N/A,,Scattered Clouds,310,2013-06-22 08:35:00
3:55 AM,79.3,71.8,78,29.93,10.0,Calm,Calm,-,N/A,,Scattered Clouds,0,2013-06-22 08:55:00
4:15 AM,78.6,72.1,80,29.91,10.0,NE,3.5,-,N/A,,Clear,50,2013-06-22 09:15:00
4:35 AM,78.1,72.0,81,29.89,10.0,SSE,8.1,-,N/A,,Clear,150,2013-06-22 09:35:00
4:55 AM,78.1,71.8,81,29.88,10.0,ESE,5.8,-,N/A,,Clear,120,2013-06-22 09:55:00
5:15 AM,77.5,71.4,81,29.90,10.0,NE,3.5,-,N/A,,Clear,40,2013-06-22 10:15:00
5:35 AM,75.2,71.2,87,29.93,10.0,NE,4.6,-,N/A,,Clear,40,2013-06-22 10:35:00
5:55 AM,75.2,71.2,87,29.93,10.0,ENE,5.8,-,N/A,,Clear,70,2013-06-22 10:55:00
6:15 AM,75.4,71.2,87,29.94,7.0,NE,6.9,-,N/A,,Clear,40,2013-06-22 11:15:00
6:35 AM,75.2,71.4,88,29.94,7.0,NE,6.9,-,N/A,,Clear,50,2013-06-22 11:35:00
6:55 AM,76.1,71.6,86,29.95,7.0,ENE,6.9,-,N/A,,Clear,60,2013-06-22 11:55:00
7:15 AM,76.8,72.0,85,29.94,7.0,East,5.8,-,N/A,,Clear,80,2013-06-22 12:15:00
7:35 AM,78.1,72.5,83,29.95,7.0,NE,6.9,-,N/A,,Clear,50,2013-06-22 12:35:00
7:55 AM,78.6,72.7,82,29.94,10.0,ENE,5.8,-,N/A,,Clear,70,2013-06-22 12:55:00
8:15 AM,80.1,71.8,76,29.93,7.0,ESE,11.5,-,N/A,,Clear,120,2013-06-22 13:15:00
8:35 AM,80.6,70.9,72,29.93,7.0,ESE,10.4,-,N/A,,Clear,120,2013-06-22 13:35:00
8:55 AM,80.6,70.3,71,29.95,7.0,SE,3.5,-,N/A,,Mostly Cloudy,140,2013-06-22 13:55:00
9:15 AM,80.8,69.8,69,29.95,7.0,Calm,Calm,-,N/A,,Overcast,0,2013-06-22 14:15:00
9:35 AM,81.3,69.8,68,29.95,10.0,ENE,3.5,-,N/A,,Overcast,70,2013-06-22 14:35:00
9:55 AM,76.6,64.0,65,29.97,10.0,NNE,17.3,21.9,N/A,,Mostly Cloudy,30,2013-06-22 14:55:00
10:15 AM,77.4,64.2,64,29.98,10.0,NE,11.5,23.0,N/A,,Mostly Cloudy,50,2013-06-22 15:15:00
10:35 AM,78.8,64.2,61,29.95,10.0,East,17.3,21.9,N/A,,Scattered Clouds,80,2013-06-22 15:35:00
10:55 AM,81.3,65.7,59,29.95,10.0,East,9.2,-,N/A,,Clear,80,2013-06-22 15:55:00
11:15 AM,84.0,66.7,56,29.95,10.0,East,10.4,-,N/A,Thunderstorm,Thunderstorm,100,2013-06-22 16:15:00
11:35 AM,83.1,67.1,58,29.95,10.0,SE,12.7,-,N/A,Thunderstorm,Thunderstorm,140,2013-06-22 16:35:00
11:55 AM,82.4,67.5,60,29.95,7.0,SSE,9.2,16.1,N/A,Thunderstorm,Thunderstorm,160,2013-06-22 16:55:00
12:15 PM,82.4,68.0,62,29.88,7.0,SE,23.0,28.8,N/A,Thunderstorm,Thunderstorm,140,2013-06-22 17:15:00
12:35 PM,82.2,68.0,62,29.85,7.0,SE,20.7,28.8,N/A,,Clear,130,2013-06-22 17:35:00
12:55 PM,84.7,65.3,52,29.82,10.0,ESE,16.1,35.7,N/A,,Clear,120,2013-06-22 17:55:00
1:15 PM,84.6,68.0,57,29.84,7.0,SSE,17.3,26.5,N/A,,Clear,160,2013-06-22 18:15:00
1:35 PM,85.1,67.8,56,29.83,10.0,South,20.7,28.8,N/A,,Clear,170,2013-06-22 18:35:00
1:55 PM,86.5,68.4,54,29.82,7.0,SSE,20.7,28.8,N/A,,Clear,160,2013-06-22 18:55:00
2:15 PM,88.0,68.2,52,29.82,10.0,South,26.5,32.2,N/A,,Clear,180,2013-06-22 19:15:00
2:35 PM,88.7,67.8,50,29.83,10.0,South,28.8,38.0,N/A,,Clear,180,2013-06-22 19:35:00
2:55 PM,90.3,67.3,47,29.82,7.0,South,28.8,39.1,N/A,,Clear,170,2013-06-22 19:55:00
3:15 PM,90.1,66.4,45,29.81,10.0,SSE,23.0,38.0,N/A,,Clear,160,2013-06-22 20:15:00
3:35 PM,90.7,66.0,44,29.80,10.0,South,24.2,36.8,N/A,,Clear,170,2013-06-22 20:35:00
3:55 PM,91.9,63.7,39,29.79,10.0,South,31.1,39.1,N/A,,Clear,180,2013-06-22 20:55:00
4:15 PM,91.8,63.1,38,29.79,10.0,South,27.6,34.5,N/A,,Clear,180,2013-06-22 21:15:00
4:35 PM,91.4,63.0,39,29.80,10.0,South,28.8,35.7,N/A,,Clear,170,2013-06-22 21:35:00
4:55 PM,91.9,63.5,39,29.80,10.0,South,21.9,29.9,N/A,,Clear,190,2013-06-22 21:55:00
5:15 PM,91.9,63.0,38,29.80,10.0,South,17.3,32.2,N/A,,Clear,180,2013-06-22 22:15:00
5:35 PM,91.4,64.4,41,29.80,10.0,South,20.7,31.1,N/A,,Clear,190,2013-06-22 22:35:00
5:55 PM,90.7,64.8,42,29.80,7.0,South,19.6,27.6,N/A,,Clear,180,2013-06-22 22:55:00
6:15 PM,90.1,65.8,44,29.79,10.0,South,17.3,32.2,N/A,,Clear,180,2013-06-22 23:15:00
6:35 PM,89.6,66.6,46,29.79,10.0,South,16.1,27.6,N/A,,Clear,180,2013-06-22 23:35:00
6:55 PM,89.4,66.6,47,29.79,7.0,South,16.1,25.3,N/A,,Clear,170,2013-06-22 23:55:00
7:15 PM,88.7,67.1,49,29.78,7.0,SSE,16.1,21.9,N/A,,Clear,150,2013-06-23 00:15:00
7:35 PM,88.0,67.1,50,29.78,7.0,SSE,16.1,23.0,N/A,,Clear,160,2013-06-23 00:35:00
7:55 PM,87.1,66.7,51,29.79,10.0,SSE,17.3,24.2,N/A,,Clear,160,2013-06-23 00:55:00
8:15 PM,86.4,66.6,51,29.80,7.0,SSE,16.1,23.0,N/A,,Clear,160,2013-06-23 01:15:00
8:35 PM,86.0,66.4,52,29.80,7.0,SSE,18.4,24.2,N/A,,Clear,160,2013-06-23 01:35:00
8:55 PM,85.1,67.1,55,29.80,7.0,SSE,13.8,-,N/A,,Clear,150,2013-06-23 01:55:00
9:15 PM,84.4,66.6,55,29.80,10.0,SSE,17.3,23.0,N/A,,Clear,160,2013-06-23 02:15:00
9:35 PM,83.8,66.0,55,29.81,10.0,SSE,15.0,23.0,N/A,,Clear,160,2013-06-23 02:35:00
9:55 PM,83.3,64.9,54,29.82,10.0,SSE,16.1,24.2,N/A,,Clear,160,2013-06-23 02:55:00
10:15 PM,82.9,64.0,53,29.82,10.0,SSE,19.6,23.0,N/A,,Clear,160,2013-06-23 03:15:00
10:35 PM,82.8,63.5,52,29.83,10.0,SSE,15.0,24.2,N/A,,Clear,160,2013-06-23 03:35:00
10:55 PM,82.0,63.3,53,29.84,10.0,SSE,18.4,23.0,N/A,,Clear,160,2013-06-23 03:55:00
11:15 PM,82.0,63.5,53,29.84,10.0,SSE,15.0,27.6,N/A,,Clear,160,2013-06-23 04:15:00
11:35 PM,81.5,63.5,54,29.84,10.0,SSE,13.8,24.2,N/A,,Clear,160,2013-06-23 04:35:00
11:55 PM,81.0,64.0,56,29.84,10.0,SSE,15.0,24.2,N/A,,Clear,160,2013-06-23 04:55:00